createdAt,value
2023-04-01T00:03:19.145Z,9.52
2023-04-01T00:08:40.473Z,9.51
2023-04-01T00:14:01.640Z,9.47
2023-04-01T00:19:22.475Z,9.43
2023-04-01T00:24:43.353Z,9.40
2023-04-01T00:30:04.700Z,9.35
2023-04-01T00:35:25.922Z,9.28
2023-04-01T00:40:47.501Z,9.26
2023-04-01T00:46:08.421Z,9.21
2023-04-01T00:51:29.542Z,9.13
2023-04-01T00:57:05.391Z,8.99
2023-04-01T01:02:26.789Z,8.83
2023-04-01T01:07:53.961Z,8.75
2023-04-01T01:13:35.409Z,8.70
2023-04-01T01:19:02.183Z,8.68
2023-04-01T01:24:23.055Z,8.69
2023-04-01T01:29:49.323Z,8.69
2023-04-01T01:35:44.950Z,8.74
2023-04-01T01:41:11.034Z,8.74
2023-04-01T01:46:32.985Z,8.78
2023-04-01T01:51:53.838Z,8.81
2023-04-01T01:57:14.678Z,8.77
2023-04-01T02:02:39.819Z,8.74
2023-04-01T02:08:04.468Z,8.74
2023-04-01T02:13:53.929Z,8.70
2023-04-01T02:19:15.343Z,8.67
2023-04-01T02:24:36.428Z,8.63
2023-04-01T02:29:57.581Z,8.61
2023-04-01T02:35:18.630Z,8.58
2023-04-01T02:40:44.203Z,8.56
2023-04-01T02:46:05.492Z,8.60
2023-04-01T02:51:26.981Z,8.61
2023-04-01T02:56:47.809Z,8.68
2023-04-01T03:02:08.623Z,8.72
2023-04-01T03:07:29.370Z,8.77
2023-04-01T03:12:50.290Z,8.82
2023-04-01T03:18:11.573Z,8.85
2023-04-01T03:23:32.561Z,8.89
2023-04-01T03:28:53.737Z,8.92
2023-04-01T03:34:15.217Z,8.93
2023-04-01T03:39:37.351Z,8.92
2023-04-01T03:44:58.283Z,8.93
2023-04-01T03:50:19.083Z,8.92
2023-04-01T03:55:40.416Z,8.93
2023-04-01T04:01:02.286Z,8.94
2023-04-01T04:06:24.981Z,8.92
2023-04-01T04:11:46.765Z,8.88
2023-04-01T04:17:09.207Z,8.89
2023-04-01T04:22:30.197Z,8.89
2023-04-01T04:27:51.471Z,8.92
2023-04-01T04:33:12.944Z,8.90
2023-04-01T04:38:34.352Z,8.87
2023-04-01T04:43:57.112Z,8.88
2023-04-01T04:49:19.690Z,8.88
2023-04-01T04:54:40.966Z,8.89
2023-04-01T05:00:02.135Z,8.92
2023-04-01T05:05:51.110Z,8.98
2023-04-01T05:11:17.624Z,9.03
2023-04-01T05:16:38.565Z,9.04
2023-04-01T05:21:59.898Z,9.06
2023-04-01T05:27:20.672Z,9.14
2023-04-01T05:32:41.735Z,9.30
2023-04-01T05:38:03.456Z,9.46
2023-04-01T05:43:24.741Z,9.58
2023-04-01T05:48:47.801Z,9.49
2023-04-01T05:54:09.150Z,9.58
2023-04-01T05:59:32.346Z,9.68
2023-04-01T06:05:01.060Z,9.92
2023-04-01T06:10:22.025Z,10.13
2023-04-01T06:15:55.435Z,10.33
2023-04-01T06:21:38.951Z,10.83
2023-04-01T06:27:41.371Z,11.54
2023-04-01T06:33:17.713Z,12.32
2023-04-01T06:38:47.264Z,13.21
2023-04-01T06:44:19.999Z,13.70
2023-04-01T06:50:08.892Z,13.92
2023-04-01T06:56:35.585Z,13.80
2023-04-01T07:02:11.625Z,12.82
2023-04-01T07:07:42.436Z,12.52
2023-04-01T07:13:07.680Z,13.22
2023-04-01T07:19:04.378Z,14.68
2023-04-01T07:24:42.686Z,17.46
2023-04-01T07:30:08.183Z,23.79
2023-04-01T07:35:29.204Z,22.35
2023-04-01T07:41:24.041Z,21.55
2023-04-01T07:47:04.974Z,19.84
2023-04-01T07:52:34.773Z,19.03
2023-04-01T07:58:38.589Z,19.79
2023-04-01T08:04:43.550Z,18.36
2023-04-01T08:10:14.553Z,17.49
2023-04-01T08:16:19.275Z,17.90
2023-04-01T08:21:53.755Z,18.12
2023-04-01T08:27:22.522Z,23.84
2023-04-01T08:32:53.216Z,26.69
2023-04-01T08:38:21.591Z,28.89
2023-04-01T08:44:10.355Z,28.92
2023-04-01T08:49:41.441Z,24.12
2023-04-01T08:55:46.938Z,21.68
2023-04-01T09:01:43.210Z,20.09
2023-04-01T09:07:51.124Z,18.68
2023-04-01T09:13:36.502Z,17.73
2023-04-01T09:19:18.289Z,17.53
2023-04-01T09:25:01.719Z,16.79
2023-04-01T09:30:42.861Z,17.40
2023-04-01T09:36:12.736Z,17.86
2023-04-01T09:41:37.467Z,18.12
2023-04-01T09:47:29.027Z,19.49
2023-04-01T09:53:05.659Z,21.52
2023-04-01T09:58:43.672Z,23.59
2023-04-01T10:05:01.585Z,21.24
2023-04-01T10:10:44.328Z,18.44
2023-04-01T10:16:25.790Z,17.85
2023-04-01T10:22:24.540Z,22.04
2023-04-01T10:28:16.466Z,26.25
2023-04-01T10:34:34.303Z,28.64
2023-04-01T10:40:10.502Z,27.01
2023-04-01T10:46:37.410Z,28.27
2023-04-01T10:52:20.429Z,26.81
2023-04-01T10:58:12.492Z,22.32
2023-04-01T11:04:13.793Z,19.87
2023-04-01T11:10:28.921Z,19.22
2023-04-01T11:16:28.932Z,19.16
2023-04-01T11:22:27.536Z,20.01
2023-04-01T11:28:31.460Z,20.56
2023-04-01T11:33:56.636Z,20.58
2023-04-01T11:39:42.372Z,20.04
2023-04-01T11:45:47.527Z,18.82
2023-04-01T11:51:16.861Z,18.51
2023-04-01T11:57:08.828Z,19.08
2023-04-01T12:02:48.441Z,19.20
2023-04-01T12:08:24.600Z,19.03
2023-04-01T12:14:04.282Z,18.76
2023-04-01T12:19:36.568Z,18.34
2023-04-01T12:25:20.830Z,17.94
2023-04-01T12:31:12.660Z,17.48
2023-04-01T12:36:53.132Z,17.58
2023-04-01T12:42:36.046Z,17.88
2023-04-01T12:48:28.653Z,17.83
2023-04-01T12:54:00.778Z,18.27
2023-04-01T12:59:33.368Z,18.09
2023-04-01T13:05:11.896Z,17.24
2023-04-01T13:10:38.650Z,16.80
2023-04-01T13:16:02.590Z,17.09
2023-04-01T13:21:58.924Z,17.47
2023-04-01T13:27:50.993Z,18.07
2023-04-01T13:33:21.359Z,18.16
2023-04-01T13:38:51.432Z,17.87
2023-04-01T13:44:18.473Z,17.50
2023-04-01T14:13:19.062Z,17.26
2023-04-01T14:31:39.864Z,15.50
2023-04-01T14:37:17.313Z,15.31
2023-04-01T14:42:50.242Z,15.34
2023-04-01T15:07:24.044Z,15.13
2023-04-01T15:26:02.658Z,14.62
2023-04-01T16:02:58.488Z,14.08
2023-04-01T16:17:18.198Z,13.58
2023-04-01T16:23:01.450Z,13.43
2023-04-01T16:50:28.620Z,12.85
2023-04-01T16:56:08.531Z,12.67
2023-04-01T17:01:50.167Z,12.51
2023-04-01T17:07:29.633Z,12.32
2023-04-01T17:13:41.993Z,12.18
2023-04-01T17:19:14.869Z,12.03
2023-04-01T17:25:06.409Z,11.93
2023-04-01T17:49:50.333Z,11.63
2023-04-01T17:55:52.141Z,11.63
2023-04-01T18:02:11.925Z,11.55
2023-04-01T18:07:47.483Z,11.60
2023-04-01T18:13:27.701Z,11.57
2023-04-01T18:18:51.611Z,11.45
2023-04-01T18:24:12.099Z,11.37
2023-04-01T18:29:41.257Z,11.32
2023-04-01T18:35:20.712Z,11.29
2023-04-01T18:40:47.226Z,11.22
2023-04-01T18:46:18.982Z,11.20
2023-04-01T18:51:49.229Z,11.10
2023-04-01T18:57:17.549Z,11.02
2023-04-01T19:02:43.121Z,11.00
2023-04-01T19:08:32.024Z,10.95
2023-04-01T19:14:06.648Z,10.88
2023-04-01T19:19:55.504Z,10.87
2023-04-01T19:25:19.593Z,10.86
2023-04-01T19:30:47.124Z,10.82
2023-04-01T19:36:31.137Z,10.82
2023-04-01T19:41:55.202Z,10.76
2023-04-01T19:47:34.954Z,10.70
2023-04-01T19:52:57.512Z,10.64
2023-04-01T19:58:30.033Z,10.62
2023-04-01T20:03:59.555Z,10.59
2023-04-01T20:09:39.319Z,10.57
2023-04-01T20:15:00.634Z,10.57
2023-04-01T20:20:27.070Z,10.56
2023-04-01T20:25:54.108Z,10.51
2023-04-01T20:31:27.588Z,10.51
2023-04-01T20:37:26.935Z,10.46
2023-04-01T20:57:03.727Z,10.38
2023-04-01T21:02:43.008Z,10.30
2023-04-01T21:08:07.734Z,10.23
2023-04-01T21:13:37.421Z,10.16
2023-04-01T21:19:13.739Z,10.14
2023-04-01T21:24:38.147Z,10.13
2023-04-01T21:30:21.448Z,10.06
2023-04-01T21:36:09.331Z,10.03
2023-04-01T21:41:45.624Z,10.02
2023-04-01T21:47:31.155Z,9.99
2023-04-01T21:53:25.336Z,9.97
2023-04-01T21:58:46.416Z,9.96
2023-04-01T22:04:35.756Z,9.95
2023-04-01T22:10:06.282Z,9.98
2023-04-01T22:15:46.113Z,9.96
2023-04-01T22:21:30.341Z,9.98
2023-04-01T22:27:00.534Z,10.00
2023-04-01T22:32:46.566Z,10.07
2023-04-01T22:38:20.621Z,10.13
2023-04-01T22:43:43.136Z,10.18
2023-04-01T22:49:23.506Z,10.15
2023-04-01T22:54:49.506Z,10.16
2023-04-01T23:00:19.779Z,10.16
2023-04-01T23:05:44.548Z,10.16
2023-04-01T23:11:07.351Z,10.16
2023-04-01T23:16:37.891Z,10.13
2023-04-01T23:22:17.636Z,10.15
2023-04-01T23:27:41.695Z,10.13
2023-04-01T23:33:20.906Z,10.09
2023-04-01T23:38:42.815Z,10.07
2023-04-01T23:44:06.688Z,10.06
2023-04-01T23:49:41.895Z,10.06
2023-04-01T23:55:13.010Z,10.08
